Enter the Airport ICAO Code

Search by Airport or City

Current Weather

SBGL | Rio de Janeiro–Galeão International Airport

Rio de Janeiro, Brazil

Last Update 28 Minutes Ago

Clear Sky

Temperature of 34 ºC

Moderate Winds from West

Temperature

34 ºC

Dew Point Temperature

19 ºC

Relative Humidity

41.48 %

Wind Direction

West (280º, Without Significant Variations)

Wind Velocity

19 km/h (10 kt)

Gusts

None

Visibility

No Significant Reductions

Sea Level Pressure

1008 hPa (Hectopascals)

Layers of Clouds

None

METAR SBGL 211400Z 28010KT CAVOK 34/19 Q1008

Weather Forecast

SBGL | Rio de Janeiro–Galeão International Airport

Rio de Janeiro, Brazil

Forecast valid for the next 28 Hours

In the next 2 hours it is expected the begining of:

Partly Cloudy Sky

Moderate Winds from SouthWest

In 2 hours it is expected the begining of 3 hours with intermittent periods of:

Moderate to Strong Winds from SouthWest with Gusts

In 11 to 13 hours it is expected the begining of:

Mostly Cloudy Sky

Light to Moderate Winds from SouthWest

In 21 to 23 hours it is expected the begining of:

Moderate Winds from South

Maximum Temperature

36 ºC in 1 Hour

Minimum Temperature

22 ºC in 18 Hours

TAF SBGL 210900Z 2112/2218 31005KT 9999 SCT020 TX36/2115Z TN22/2208Z BECMG 2114/2116 23015KT SCT025 FEW030TCU TEMPO 2116/2119 22020G30KT PROB40 2120/2201 3000 RA BKN010 BECMG 2201/2203 24005KT 7000 BKN017 BECMG 2211/2213 19010KT BKN015 RMK PGU